Guilford, Vermont
Current Conditions -  °F | °C
As of 6:15 PM on Thursday 20 Nov 2014 (Local Time) from KEEN Reporting Station
Few Clouds Few Clouds  
Wind Chill:   Ceiling: Unl
Heat Index:   Visibility: 10mi
Dew Point: -7°   Wind: 3mph
Humidity: 60%   Direction: 270°W
Pressure: 29.85"   Gusts: NA
Location:  42.8513°N, 72.6568°W
Report Text: KEEN 202315Z AUTO 27003KT 10SM FEW070 00/M07 A2985 RMK AO1
Loading
Personal Weather Stations






























Interactive Weather Map New forecast layout! Learn more

10-Day Weather Forecast

Advertisements
Track Severe Weather on mobile